Time;durP1;ratioP1;P1;durP2;ratioP2;P2;SDS_P1;SDS_P2;PMS_P1;PMS_P2;Temp;Humidity;BMP_temperature;BMP_pressure;BME280_temperature;BME280_humidity;BME280_pressure;Samples;Min_cycle;Max_cycle;Signal;HPM_P1;HPM_P2
2022/04/15 00:00:31;;;;;;;5.15;2.65;;;;;;;8.86;98.66;99063.69;4983044;28;20027;-90
2022/04/15 00:02:57;;;;;;;9.85;2.72;;;;;;;8.90;98.62;99063.66;4966843;28;20353;-91
2022/04/15 00:05:36;;;;;;;7.80;3.17;;;;;;;8.79;98.12;99063.72;4966822;28;20023;-90
2022/04/15 00:08:10;;;;;;;10.38;3.90;;;;;;;8.73;98.67;99066.38;4982953;28;20043;-90
2022/04/15 00:10:37;;;;;;;11.85;3.25;;;;;;;8.51;98.41;99058.59;4966714;29;20070;-90
2022/04/15 00:13:08;;;;;;;7.57;3.60;;;;;;;8.34;98.86;99058.69;4966593;29;20030;-91
2022/04/15 00:15:34;;;;;;;7.43;3.63;;;;;;;8.34;98.90;99058.69;4966522;29;20280;-90
2022/04/15 00:18:00;;;;;;;8.43;3.00;;;;;;;8.30;99.31;99049.09;4966517;29;20102;-90
2022/04/15 00:20:28;;;;;;;11.13;3.20;;;;;;;8.35;98.75;99055.19;4966489;28;20051;-90
2022/04/15 00:22:54;;;;;;;7.75;3.47;;;;;;;8.40;99.00;99058.69;4966305;29;20050;-90
2022/04/15 00:25:21;;;;;;;6.20;3.33;;;;;;;8.34;99.18;99069.19;4966374;29;20039;-90
2022/04/15 00:27:47;;;;;;;6.60;3.30;;;;;;;8.29;99.17;99059.59;4966280;29;20073;-91
2022/04/15 00:30:13;;;;;;;11.57;3.67;;;;;;;8.28;99.51;99063.09;4966633;29;20029;-90
2022/04/15 00:32:41;;;;;;;6.50;3.15;;;;;;;8.16;98.83;99058.72;4966282;29;20179;-90
2022/04/15 00:35:07;;;;;;;7.70;3.60;;;;;;;8.19;99.52;99061.34;4965792;28;20092;-90
2022/04/15 00:37:33;;;;;;;5.53;3.20;;;;;;;8.28;99.28;99063.09;4966331;28;20062;-90
2022/04/15 00:40:01;;;;;;;5.85;3.58;;;;;;;8.24;99.30;99067.47;4967300;29;20023;-91
2022/04/15 00:42:27;;;;;;;5.88;3.20;;;;;;;8.13;98.69;99063.97;4966045;29;20033;-91
2022/04/15 00:44:54;;;;;;;7.07;4.00;;;;;;;8.22;98.98;99063.97;4966025;28;20199;-90
2022/04/15 00:47:45;;;;;;;9.02;3.20;;;;;;;8.07;98.39;99069.22;4965915;28;20015;-90
2022/04/15 00:50:11;;;;;;;6.10;3.00;;;;;;;7.91;98.04;99059.66;4965915;29;20057;-90
2022/04/15 00:52:40;;;;;;;5.53;3.33;;;;;;;7.76;98.30;99064.94;4966165;29;20074;-90
2022/04/15 00:55:06;;;;;;;7.32;3.55;;;;;;;7.69;99.52;99060.56;4966163;29;20023;-90
2022/04/15 00:57:34;;;;;;;5.60;3.25;;;;;;;7.74;99.68;99052.69;4965749;29;20106;-90
2022/04/15 01:00:01;;;;;;;6.38;3.63;;;;;;;7.78;99.72;99060.56;4965703;28;20030;-90
2022/04/15 01:02:29;;;;;;;6.05;3.63;;;;;;;7.76;100.00;99062.31;4966797;29;20070;-90
2022/04/15 01:04:56;;;;;;;6.30;3.60;;;;;;;7.76;100.00;99062.31;4967077;29;20030;-91
2022/04/15 01:07:33;;;;;;;7.78;3.70;;;;;;;7.62;99.76;99058.84;4965926;29;20098;-90
2022/04/15 01:10:01;;;;;;;8.15;3.80;;;;;;;7.62;100.00;99064.06;4965593;29;20054;-90
2022/04/15 01:12:30;;;;;;;9.95;3.42;;;;;;;7.63;100.00;99065.81;4965805;29;20022;-90
2022/04/15 01:15:00;;;;;;;7.18;3.35;;;;;;;7.75;100.00;99064.94;4965623;29;20019;-90
2022/04/15 01:17:29;;;;;;;10.85;3.67;;;;;;;7.76;99.68;99066.69;4965416;29;20023;-90
2022/04/15 01:19:55;;;;;;;7.05;3.40;;;;;;;7.57;98.42;99064.94;4965445;29;20026;-90
2022/04/15 01:22:24;;;;;;;6.25;2.92;;;;;;;7.53;98.80;99069.31;4966514;29;20227;-90
2022/04/15 01:24:53;;;;;;;9.10;3.03;;;;;;;7.42;99.52;99065.84;4966548;29;20065;-90
2022/04/15 01:27:26;;;;;;;7.47;3.67;;;;;;;7.28;99.26;99070.19;4965396;29;20377;-90
2022/04/15 01:29:51;;;;;;;10.50;3.60;;;;;;;7.31;100.00;99072.81;4965277;29;20259;-90
2022/04/15 01:32:17;;;;;;;6.93;3.30;;;;;;;7.22;100.00;99067.59;4966394;29;20019;-90
2022/04/15 01:34:42;;;;;;;6.00;3.45;;;;;;;7.03;100.00;99076.28;4965080;29;20027;-90
2022/04/15 01:37:08;;;;;;;6.30;3.05;;;;;;;7.04;100.00;99071.91;4965076;29;20031;-90
2022/04/15 01:39:34;;;;;;;6.45;3.22;;;;;;;7.21;100.00;99081.53;4965233;29;20027;-90
2022/04/15 01:41:59;;;;;;;6.72;3.67;;;;;;;7.14;100.00;99071.94;4965117;29;20023;-90
2022/04/15 01:44:25;;;;;;;8.57;3.92;;;;;;;7.16;100.00;99075.44;4965115;29;20026;-90
2022/04/15 01:46:50;;;;;;;7.97;3.92;;;;;;;7.16;100.00;99082.41;4964295;28;20049;-90
2022/04/15 01:49:15;;;;;;;6.15;2.88;;;;;;;6.91;100.00;99070.13;4965050;29;20034;-90
2022/04/15 01:51:41;;;;;;;5.85;2.70;;;;;;;6.93;100.00;99074.50;4965066;29;20322;-90
2022/04/15 01:54:06;;;;;;;7.32;2.88;;;;;;;7.00;100.00;99068.44;4965984;29;20046;-90
2022/04/15 01:56:32;;;;;;;9.38;3.35;;;;;;;7.07;100.00;99070.19;4964929;29;20319;-90
2022/04/15 01:58:57;;;;;;;3.75;2.60;;;;;;;7.08;100.00;99065.81;4966003;29;20070;-90
2022/04/15 02:01:23;;;;;;;6.68;3.25;;;;;;;7.01;100.00;99066.66;4964776;28;20319;-90
2022/04/15 02:03:48;;;;;;;6.65;3.05;;;;;;;6.97;100.00;99073.66;4964905;29;20322;-90
2022/04/15 02:06:14;;;;;;;5.28;3.00;;;;;;;6.92;100.00;99062.28;4964871;29;20311;-90
2022/04/15 02:08:40;;;;;;;7.15;3.15;;;;;;;6.89;100.00;99067.53;4964847;29;20326;-90
2022/04/15 02:11:06;;;;;;;8.55;2.70;;;;;;;6.86;100.00;99071.91;4965070;29;20023;-90
2022/04/15 02:13:31;;;;;;;3.35;2.33;;;;;;;6.89;100.00;99067.53;4964706;29;20027;-90
2022/04/15 02:15:57;;;;;;;5.80;2.47;;;;;;;6.89;100.00;99077.97;4964660;29;20023;-90
2022/04/15 02:18:24;;;;;;;4.70;2.60;;;;;;;6.87;100.00;99077.13;4964668;29;20065;-90
2022/04/15 02:20:50;;;;;;;5.55;2.78;;;;;;;6.61;100.00;99076.16;4964740;29;20050;-90
2022/04/15 02:23:15;;;;;;;5.57;3.22;;;;;;;6.47;100.00;99078.75;4964498;29;20038;-90
2022/04/15 02:25:41;;;;;;;6.05;3.03;;;;;;;6.54;100.00;99085.75;4964644;29;20021;-90
2022/04/15 02:28:06;;;;;;;7.70;3.63;;;;;;;6.57;100.00;99077.03;4964731;28;20259;-90
2022/04/15 02:30:32;;;;;;;3.05;2.08;;;;;;;6.71;100.00;99083.19;4964666;29;20030;-90
2022/04/15 02:32:57;;;;;;;5.90;3.10;;;;;;;6.68;99.84;99084.03;4965077;29;20019;-90
2022/04/15 02:35:23;;;;;;;6.82;2.58;;;;;;;6.57;100.00;99090.09;4964732;29;20039;-90
2022/04/15 02:37:48;;;;;;;5.07;2.90;;;;;;;6.58;99.92;99084.00;4964427;29;20031;-90
2022/04/15 02:40:14;;;;;;;6.35;3.05;;;;;;;6.55;100.00;99087.47;4964589;29;20343;-90
2022/04/15 02:42:39;;;;;;;3.88;2.58;;;;;;;6.50;100.00;99083.09;4964578;29;20290;-90
2022/04/15 02:45:07;;;;;;;2.97;2.08;;;;;;;6.46;100.00;99078.75;4964454;29;20351;-90
2022/04/15 02:47:32;;;;;;;3.38;2.35;;;;;;;6.49;100.00;99081.38;4964696;29;20019;-90
2022/04/15 02:49:58;;;;;;;3.60;2.30;;;;;;;6.46;100.00;99087.44;4964379;29;20378;-90
2022/04/15 02:52:24;;;;;;;4.68;2.78;;;;;;;6.53;99.83;99093.59;4964330;29;20023;-90
2022/04/15 02:54:49;;;;;;;6.88;3.28;;;;;;;6.35;100.00;99088.25;4964327;29;20019;-90
2022/04/15 02:57:15;;;;;;;4.57;2.63;;;;;;;6.28;100.00;99090.00;4964249;29;20027;-90
2022/04/15 02:59:40;;;;;;;6.85;3.25;;;;;;;6.28;100.00;99091.72;4967310;28;20019;-90
2022/04/15 03:02:06;;;;;;;5.32;3.17;;;;;;;6.22;100.00;99086.47;4968278;29;20274;-90
2022/04/15 03:04:31;;;;;;;5.65;2.90;;;;;;;6.30;100.00;99090.00;4967922;28;20019;-90
2022/04/15 03:06:57;;;;;;;10.88;3.22;;;;;;;6.16;100.00;99091.66;4967911;29;20369;-90
2022/04/15 03:09:22;;;;;;;6.68;3.80;;;;;;;6.08;100.00;99082.91;4968914;29;20027;-90
2022/04/15 03:11:48;;;;;;;5.68;3.25;;;;;;;6.23;100.00;99088.19;4968161;29;20215;-90
2022/04/15 03:14:17;;;;;;;5.72;3.15;;;;;;;6.25;99.75;99081.25;4967707;29;20063;-90
2022/04/15 03:16:42;;;;;;;6.53;3.22;;;;;;;6.22;99.92;99091.69;4967703;29;20031;-90
2022/04/15 03:19:08;;;;;;;6.32;2.80;;;;;;;6.03;99.43;99089.84;4967696;29;20027;-90
2022/04/15 03:21:35;;;;;;;4.35;2.65;;;;;;;6.02;100.00;99090.72;4967534;29;20027;-90
2022/04/15 03:24:02;;;;;;;5.75;3.22;;;;;;;6.01;100.00;99088.97;4967568;28;20078;-90
2022/04/15 03:26:27;;;;;;;6.07;3.17;;;;;;;6.06;100.00;99089.84;4967430;29;20203;-90
2022/04/15 03:28:53;;;;;;;6.97;3.75;;;;;;;6.12;100.00;99087.28;4967461;29;20026;-90
2022/04/15 03:31:18;;;;;;;3.65;2.58;;;;;;;6.10;100.00;99089.00;4967467;29;20074;-90
2022/04/15 03:33:44;;;;;;;5.07;2.60;;;;;;;6.08;100.00;99093.38;4967394;28;20050;-90
2022/04/15 03:36:09;;;;;;;3.58;2.38;;;;;;;6.13;100.00;99094.25;4967592;29;20026;-90
2022/04/15 03:38:35;;;;;;;2.92;1.88;;;;;;;5.88;99.50;99094.97;4967191;29;20326;-90
2022/04/15 03:41:00;;;;;;;3.50;2.35;;;;;;;5.95;100.00;99086.31;4967239;29;20043;-90
2022/04/15 03:43:26;;;;;;;4.05;2.50;;;;;;;5.96;100.00;99091.56;4967062;29;20046;-90
2022/04/15 03:45:51;;;;;;;3.55;2.40;;;;;;;5.97;100.00;99089.81;4967422;29;20066;-90
2022/04/15 03:48:17;;;;;;;3.53;2.22;;;;;;;5.71;99.97;99092.22;4967092;29;20276;-90
2022/04/15 03:50:42;;;;;;;3.22;2.30;;;;;;;5.79;100.00;99100.97;4967104;29;20106;-90
2022/04/15 03:53:08;;;;;;;3.28;2.17;;;;;;;5.93;100.00;99108.94;4983433;28;20026;-90
2022/04/15 03:55:33;;;;;;;2.88;2.03;;;;;;;6.03;100.00;99100.28;4966788;28;20027;-90
2022/04/15 03:57:58;;;;;;;4.93;2.50;;;;;;;6.00;100.00;99108.13;4968359;29;20027;-90
2022/04/15 04:00:25;;;;;;;4.70;2.70;;;;;;;5.93;100.00;99108.94;4966819;29;20376;-90
2022/04/15 04:02:54;;;;;;;4.00;2.30;;;;;;;6.05;100.00;99104.66;4966747;29;20085;-90
2022/04/15 04:05:20;;;;;;;2.92;2.10;;;;;;;5.93;100.00;99099.38;4966750;29;20019;-90
2022/04/15 04:07:46;;;;;;;3.45;2.20;;;;;;;5.91;100.00;99106.31;4966688;29;20031;-90
2022/04/15 04:10:13;;;;;;;9.38;2.40;;;;;;;5.81;100.00;99114.03;4966256;28;20054;-90
2022/04/15 04:12:39;;;;;;;3.67;2.50;;;;;;;5.92;100.00;99120.28;4967817;29;20019;-90
2022/04/15 04:15:06;;;;;;;3.35;2.38;;;;;;;5.91;100.00;99111.53;4966478;29;20241;-90
2022/04/15 04:17:32;;;;;;;5.38;2.95;;;;;;;5.90;100.00;99119.38;4966367;29;20051;-90
2022/04/15 04:19:58;;;;;;;7.60;2.75;;;;;;;6.08;100.00;99119.50;4966546;29;20029;-90
2022/04/15 04:22:32;;;;;;;4.97;3.05;;;;;;;6.03;100.00;99123.81;4966334;29;20023;-90
2022/04/15 04:24:58;;;;;;;4.28;2.90;;;;;;;5.98;100.00;99125.53;4966290;29;20102;-90
2022/04/15 04:27:23;;;;;;;4.90;2.55;;;;;;;6.20;100.00;99125.66;4950616;29;20027;-90
2022/04/15 04:29:49;;;;;;;6.30;3.00;;;;;;;6.30;100.00;99116.13;4966242;29;20090;-90
2022/04/15 04:32:16;;;;;;;5.57;2.90;;;;;;;6.34;100.00;99113.56;4966281;29;20023;-91
2022/04/15 04:34:41;;;;;;;4.10;2.55;;;;;;;6.45;100.00;99124.03;4966176;29;20030;-90
2022/04/15 04:37:06;;;;;;;4.53;2.83;;;;;;;6.34;99.91;99129.25;4966085;29;20027;-90
2022/04/15 04:39:32;;;;;;;4.53;2.65;;;;;;;6.37;99.91;99129.22;4966372;29;20192;-90
2022/04/15 04:41:58;;;;;;;5.13;2.67;;;;;;;6.48;99.28;99132.78;4966377;29;20026;-90
2022/04/15 04:44:24;;;;;;;3.92;2.60;;;;;;;6.51;98.49;99138.03;4966048;29;20378;-90
2022/04/15 04:46:50;;;;;;;9.65;3.10;;;;;;;6.50;98.87;99140.63;4965975;29;20116;-90
2022/04/15 04:49:16;;;;;;;4.63;2.83;;;;;;;6.54;99.44;99142.38;4965958;29;20051;-91
2022/04/15 04:51:42;;;;;;;5.85;2.65;;;;;;;6.54;99.63;99139.78;4967049;29;20023;-90
2022/04/15 04:54:08;;;;;;;4.03;2.65;;;;;;;6.58;100.00;99144.13;4966153;29;20247;-90
2022/04/15 04:56:33;;;;;;;4.25;2.35;;;;;;;6.75;99.76;99147.72;4965734;29;20038;-90
2022/04/15 04:58:59;;;;;;;7.10;3.47;;;;;;;6.77;99.83;99140.72;4965776;29;20026;-90
2022/04/15 05:01:24;;;;;;;5.47;3.40;;;;;;;6.90;100.00;99153.03;4965708;29;20022;-91
2022/04/15 05:03:50;;;;;;;9.38;3.20;;;;;;;6.79;100.00;99149.47;4966057;29;20191;-90
2022/04/15 05:06:15;;;;;;;5.05;2.90;;;;;;;6.83;99.74;99155.59;4965755;28;20019;-90
2022/04/15 05:08:41;;;;;;;5.57;2.92;;;;;;;6.59;100.00;99156.38;4965681;29;20030;-90
2022/04/15 05:11:06;;;;;;;5.07;3.13;;;;;;;6.76;99.78;99159.03;4965563;29;20023;-90
2022/04/15 05:13:32;;;;;;;5.45;2.53;;;;;;;6.86;99.20;99161.69;4965588;29;20034;-90
2022/04/15 05:15:57;;;;;;;6.82;3.22;;;;;;;6.89;99.83;99172.19;4965711;29;20033;-90
2022/04/15 05:18:22;;;;;;;5.80;3.45;;;;;;;6.86;100.00;99169.56;4965505;29;20038;-90
2022/04/15 05:20:48;;;;;;;6.63;3.50;;;;;;;6.95;100.00;99177.44;4965735;28;20070;-90
2022/04/15 05:23:13;;;;;;;6.53;3.28;;;;;;;7.12;99.96;99170.50;4965073;29;20043;-90
2022/04/15 05:25:39;;;;;;;5.88;3.30;;;;;;;7.33;99.36;99181.03;4966393;29;20023;-90
2022/04/15 05:28:05;;;;;;;4.80;2.50;;;;;;;7.44;98.18;99179.31;4965459;29;20341;-90
2022/04/15 05:30:30;;;;;;;4.80;2.65;;;;;;;7.45;97.69;99173.22;4966378;29;20070;-90
2022/04/15 05:32:56;;;;;;;4.30;2.83;;;;;;;7.39;97.70;99186.28;4965553;29;20050;-90
2022/04/15 05:35:21;;;;;;;10.25;3.03;;;;;;;7.44;97.67;99178.44;4966200;29;20222;-90
2022/04/15 05:37:47;;;;;;;6.45;3.33;;;;;;;7.69;97.07;99185.47;4965161;29;20030;-90
2022/04/15 05:40:12;;;;;;;4.00;2.65;;;;;;;7.89;96.31;99189.84;4966273;29;20030;-90
2022/04/15 05:42:38;;;;;;;4.30;2.53;;;;;;;8.03;95.79;99188.09;4965430;29;20023;-90
2022/04/15 05:45:04;;;;;;;4.90;2.95;;;;;;;8.14;95.36;99191.56;4966186;29;20027;-90
2022/04/15 05:47:30;;;;;;;4.57;2.90;;;;;;;8.18;94.76;99190.69;4965056;29;20023;-90
2022/04/15 05:49:56;;;;;;;4.93;2.72;;;;;;;8.42;94.77;99203.78;4965016;29;20027;-90
2022/04/15 05:52:21;;;;;;;4.18;2.45;;;;;;;8.74;94.38;99196.72;4964938;28;20023;-91
2022/04/15 05:54:47;;;;;;;5.25;2.85;;;;;;;9.00;93.04;99203.63;4965387;29;20239;-90
2022/04/15 05:57:12;;;;;;;3.88;2.60;;;;;;;9.23;91.86;99207.91;4980849;28;20057;-90
2022/04/15 05:59:38;;;;;;;4.28;2.60;;;;;;;9.46;90.05;99205.16;4964854;29;20090;-91
2022/04/15 06:02:03;;;;;;;3.63;2.40;;;;;;;9.60;89.42;99213.81;4964832;29;20030;-90
2022/04/15 06:04:29;;;;;;;4.25;2.78;;;;;;;9.58;89.25;99210.31;4964864;29;20025;-90
2022/04/15 06:06:54;;;;;;;4.50;2.55;;;;;;;9.60;89.38;99213.81;4964786;28;20030;-91
2022/04/15 06:09:20;;;;;;;12.13;2.85;;;;;;;9.40;89.92;99215.69;4964765;29;20143;-91
2022/04/15 06:11:45;;;;;;;4.82;2.72;;;;;;;9.25;91.25;99215.75;4965118;28;20031;-90
2022/04/15 06:14:11;;;;;;;6.50;3.08;;;;;;;9.75;90.27;99217.19;4964777;29;20023;-91
2022/04/15 06:16:42;;;;;;;4.18;2.38;;;;;;;10.03;89.52;99223.16;4964621;29;20222;-91
2022/04/15 06:19:07;;;;;;;6.93;3.60;;;;;;;10.23;88.67;99223.88;4964725;29;20073;-90
2022/04/15 06:21:33;;;;;;;7.32;3.92;;;;;;;10.32;88.36;99229.09;4964838;29;20030;-91
2022/04/15 06:23:59;;;;;;;5.13;2.90;;;;;;;10.35;88.07;99232.53;4964409;29;20047;-91
2022/04/15 06:26:24;;;;;;;4.03;2.88;;;;;;;10.54;87.49;99235.88;4964655;29;20019;-91
2022/04/15 06:28:50;;;;;;;4.55;2.67;;;;;;;10.71;86.83;99223.41;4964627;28;20053;-91
2022/04/15 06:31:15;;;;;;;5.35;2.60;;;;;;;10.96;86.58;99230.16;4964467;29;20338;-91
2022/04/15 06:33:41;;;;;;;5.03;3.20;;;;;;;11.08;86.59;99237.06;4966325;28;20019;-91
2022/04/15 06:36:07;;;;;;;7.05;3.55;;;;;;;11.30;86.32;99235.91;4968304;28;20030;-91
2022/04/15 06:38:32;;;;;;;4.95;2.53;;;;;;;11.68;85.01;99239.78;4969431;29;20030;-91
2022/04/15 06:40:58;;;;;;;5.97;3.15;;;;;;;11.84;84.94;99245.72;4968568;29;20206;-91
2022/04/15 06:43:23;;;;;;;7.30;3.05;;;;;;;12.22;83.64;99243.38;4968567;29;20019;-91
2022/04/15 06:45:49;;;;;;;6.95;3.25;;;;;;;12.54;81.73;99244.59;4968237;29;20023;-91
2022/04/15 06:48:15;;;;;;;4.75;2.92;;;;;;;12.61;82.11;99246.22;4968195;28;20034;-91
2022/04/15 06:50:40;;;;;;;5.68;3.25;;;;;;;12.39;82.95;99255.41;4968137;29;20099;-91
2022/04/15 06:53:07;;;;;;;10.02;3.30;;;;;;;12.42;83.92;99249.19;4968067;29;20034;-90
2022/04/15 06:55:33;;;;;;;5.50;3.40;;;;;;;12.30;84.70;99250.25;4968022;29;20031;-91
2022/04/15 06:57:58;;;;;;;5.85;3.60;;;;;;;12.04;85.87;99249.81;4968098;28;20097;-91
2022/04/15 07:00:24;;;;;;;5.45;3.70;;;;;;;12.08;86.44;99256.78;4967940;29;20322;-91
2022/04/15 07:02:50;;;;;;;6.13;3.70;;;;;;;12.05;87.66;99261.22;4967826;28;20026;-91
2022/04/15 07:05:16;;;;;;;8.35;3.80;;;;;;;11.90;88.14;99257.03;4968189;29;20314;-91
2022/04/15 07:07:43;;;;;;;5.93;3.40;;;;;;;11.82;88.84;99258.94;4968088;29;20090;-91
2022/04/15 07:10:13;;;;;;;8.40;3.42;;;;;;;11.87;89.57;99262.34;4968073;29;20023;-91
2022/04/15 07:12:39;;;;;;;6.63;3.95;;;;;;;11.74;90.57;99255.53;4967783;29;20050;-91
2022/04/15 07:15:05;;;;;;;10.60;4.55;;;;;;;11.72;91.95;99257.31;4967642;29;20195;-91
2022/04/15 07:17:31;;;;;;;6.18;4.05;;;;;;;11.98;91.70;99271.00;4967658;29;20341;-91
2022/04/15 07:19:57;;;;;;;7.20;4.43;;;;;;;12.46;90.62;99275.50;4967598;29;20043;-91
2022/04/15 07:22:22;;;;;;;8.15;4.53;;;;;;;13.67;86.34;99275.84;4967488;29;20098;-91
2022/04/15 07:24:49;;;;;;;10.45;4.47;;;;;;;14.11;83.33;99275.75;4967441;29;20330;-91
2022/04/15 07:27:15;;;;;;;9.27;4.95;;;;;;;14.61;81.98;99283.34;4967796;29;20015;-91
2022/04/15 07:29:42;;;;;;;9.93;5.28;;;;;;;15.13;79.79;99278.44;4967689;29;20378;-91
2022/04/15 07:32:07;;;;;;;16.90;8.05;;;;;;;15.26;77.68;99274.53;4967424;29;20045;-91
2022/04/15 07:34:35;;;;;;;58.38;26.73;;;;;;;15.13;78.28;99273.97;4967376;29;20330;-91
2022/04/15 07:37:03;;;;;;;50.40;22.58;;;;;;;15.83;76.66;99283.50;4983340;28;20094;-91
2022/04/15 07:39:29;;;;;;;63.47;26.80;;;;;;;15.70;77.00;99286.56;4967262;28;20102;-91
2022/04/15 07:41:55;;;;;;;51.72;26.00;;;;;;;15.20;77.81;99269.41;4967511;28;20023;-91
2022/04/15 07:44:20;;;;;;;45.10;22.75;;;;;;;14.93;80.86;99267.47;4966811;28;20250;-91
2022/04/15 07:46:47;;;;;;;39.45;17.92;;;;;;;16.28;77.62;99282.06;4966898;28;20247;-91
2022/04/15 07:49:13;;;;;;;34.35;17.38;;;;;;;17.39;72.25;99284.47;4968256;28;20027;-91
2022/04/15 07:51:38;;;;;;;26.42;14.23;;;;;;;17.92;69.61;99289.56;4967429;28;20022;-91
2022/04/15 07:54:05;;;;;;;22.58;12.95;;;;;;;18.39;69.26;99285.06;4966977;28;20023;-91
2022/04/15 07:56:32;;;;;;;22.27;12.65;;;;;;;18.85;67.34;99285.78;4967302;28;20027;-91
2022/04/15 07:58:58;;;;;;;26.98;13.10;;;;;;;18.80;66.49;99286.91;4966930;28;20023;-92
2022/04/15 08:01:27;;;;;;;23.65;11.98;;;;;;;19.50;65.18;99296.28;4966838;28;20023;-91
2022/04/15 08:03:53;;;;;;;23.98;12.40;;;;;;;19.80;64.39;99294.91;4967320;28;20023;-92
2022/04/15 08:06:20;;;;;;;29.15;13.65;;;;;;;19.67;63.32;99292.84;4966808;29;20015;-92
2022/04/15 08:08:45;;;;;;;26.13;13.55;;;;;;;19.38;62.47;99288.81;4967070;29;20306;-92
2022/04/15 08:11:11;;;;;;;26.25;13.88;;;;;;;20.25;61.70;99298.13;4966745;28;20042;-91
2022/04/15 08:13:37;;;;;;;29.35;14.38;;;;;;;20.54;61.32;99294.91;4967011;28;20030;-92
2022/04/15 08:16:03;;;;;;;21.73;12.25;;;;;;;20.67;62.78;99301.41;4966378;28;20043;-92
2022/04/15 08:18:30;;;;;;;24.27;13.35;;;;;;;21.12;56.86;99304.47;4966889;28;20019;-92
2022/04/15 08:20:56;;;;;;;20.58;13.05;;;;;;;20.93;56.95;99292.06;4966524;28;20027;-91
2022/04/15 08:23:22;;;;;;;20.85;13.32;;;;;;;20.80;56.89;99305.22;4966278;28;20019;-92
2022/04/15 08:25:47;;;;;;;22.77;13.75;;;;;;;20.63;56.69;99307.81;4966884;28;20303;-91
2022/04/15 08:28:13;;;;;;;22.63;13.05;;;;;;;20.69;57.71;99299.50;4966395;28;20124;-91
2022/04/15 08:30:39;;;;;;;20.92;12.93;;;;;;;20.86;59.27;99301.34;4966640;29;20094;-91
2022/04/15 08:33:07;;;;;;;25.40;14.40;;;;;;;20.83;59.20;99297.03;4950673;28;20327;-92
2022/04/15 08:35:36;;;;;;;20.75;12.75;;;;;;;21.12;58.27;99304.47;4966179;28;20195;-92
2022/04/15 08:38:02;;;;;;;22.00;13.50;;;;;;;21.50;56.08;99301.59;4966255;28;20059;-92
2022/04/15 08:40:32;;;;;;;21.77;14.05;;;;;;;21.16;55.84;99303.38;4966126;28;20027;-92
2022/04/15 08:43:00;;;;;;;27.40;13.95;;;;;;;21.28;56.54;99310.78;4966422;28;20307;-92
2022/04/15 08:45:27;;;;;;;26.63;14.45;;;;;;;21.14;57.75;99302.56;4966040;28;20019;-92
2022/04/15 08:48:00;;;;;;;21.48;14.00;;;;;;;21.50;56.08;99309.63;4966362;28;20027;-91
2022/04/15 08:50:30;;;;;;;21.20;14.55;;;;;;;20.70;56.10;99306.59;4966030;28;20038;-91
2022/04/15 08:52:57;;;;;;;22.20;13.90;;;;;;;19.94;59.30;99303.16;4966225;28;20027;-91
2022/04/15 08:55:24;;;;;;;23.90;14.48;;;;;;;20.63;59.29;99309.66;4965934;28;20066;-92
2022/04/15 08:57:51;;;;;;;23.33;13.52;;;;;;;21.49;57.05;99316.81;4966719;28;20097;-92
2022/04/15 09:00:20;;;;;;;23.23;13.90;;;;;;;21.42;56.88;99311.88;4966088;28;20022;-92
2022/04/15 09:02:47;;;;;;;25.50;14.55;;;;;;;21.01;58.51;99301.47;4965787;28;20019;-92
2022/04/15 09:05:17;;;;;;;23.23;14.57;;;;;;;21.41;56.46;99311.00;4965856;28;20101;-92
2022/04/15 09:07:44;;;;;;;26.63;15.43;;;;;;;21.26;58.28;99307.31;4966029;28;20015;-92
2022/04/15 09:10:10;;;;;;;21.17;14.38;;;;;;;21.42;56.06;99311.88;4965607;29;20226;-92
2022/04/15 09:12:37;;;;;;;25.92;15.38;;;;;;;21.52;55.03;99307.75;4965598;28;20326;-92
2022/04/15 09:15:06;;;;;;;24.40;14.25;;;;;;;21.67;56.31;99313.16;4965579;28;20023;-92
2022/04/15 09:17:34;;;;;;;24.27;14.55;;;;;;;21.98;54.76;99309.72;4965627;28;20031;-92
2022/04/15 09:20:00;;;;;;;21.20;13.20;;;;;;;21.79;57.16;99314.34;4965564;28;20022;-92
2022/04/15 09:22:26;;;;;;;23.48;14.30;;;;;;;21.42;56.06;99306.50;4965503;28;20027;-92
2022/04/15 09:24:51;;;;;;;18.17;12.80;;;;;;;22.18;53.76;99321.09;4965511;28;20466;-92
2022/04/15 09:27:19;;;;;;;24.65;14.35;;;;;;;22.53;52.86;99316.50;4965666;28;20373;-92
2022/04/15 09:29:46;;;;;;;23.23;14.57;;;;;;;22.07;52.34;99312.78;4966853;28;20023;-92
2022/04/15 09:32:16;;;;;;;23.55;13.93;;;;;;;22.71;51.82;99320.78;4965559;28;20027;-92
2022/04/15 09:35:06;;;;;;;25.67;14.45;;;;;;;22.41;49.53;99320.69;4965291;28;20027;-92
2022/04/15 09:37:42;;;;;;;22.50;12.40;;;;;;;21.90;50.74;99314.66;4966562;28;20255;-91
2022/04/15 09:40:15;;;;;;;21.67;13.38;;;;;;;21.91;50.62;99317.25;4965466;28;20019;-92
2022/04/15 09:42:55;;;;;;;21.05;13.13;;;;;;;22.57;48.37;99323.41;4965275;29;20023;-92
2022/04/15 09:45:30;;;;;;;21.98;12.48;;;;;;;22.29;49.55;99321.38;4965035;28;20047;-92
2022/04/15 09:47:57;;;;;;;17.17;11.70;;;;;;;22.17;48.71;99319.38;4965484;28;20023;-92
2022/04/15 09:50:37;;;;;;;18.35;11.68;;;;;;;22.12;50.87;99309.84;4965226;29;20039;-92
2022/04/15 09:53:21;;;;;;;25.73;12.93;;;;;;;22.52;51.95;99322.78;4965081;28;20126;-92
2022/04/15 09:55:50;;;;;;;24.58;14.35;;;;;;;22.30;51.47;99316.88;4964949;28;20027;-92
2022/04/15 09:58:20;;;;;;;26.17;14.65;;;;;;;22.47;51.62;99325.72;4965252;28;20030;-92
2022/04/15 10:00:51;;;;;;;18.85;13.07;;;;;;;22.78;50.28;99312.28;4965169;28;20038;-92
2022/04/15 10:03:27;;;;;;;21.13;12.95;;;;;;;22.32;50.43;99320.31;4965280;28;20090;-92
2022/04/15 10:05:55;;;;;;;21.02;12.70;;;;;;;21.80;51.75;99303.53;4964842;28;20019;-91
2022/04/15 10:08:22;;;;;;;20.98;13.13;;;;;;;22.32;50.65;99306.91;4964289;29;20034;-92
2022/04/15 10:10:48;;;;;;;18.15;12.57;;;;;;;22.68;50.71;99315.59;4964897;28;20102;-92
2022/04/15 10:13:14;;;;;;;22.33;12.18;;;;;;;23.24;46.66;99307.81;4966059;28;20027;-92
2022/04/15 10:15:40;;;;;;;18.90;12.20;;;;;;;23.27;47.53;99299.56;4965077;29;20085;-92
2022/04/15 10:18:06;;;;;;;20.85;10.65;;;;;;;23.36;46.47;99298.16;4964748;28;20055;-92
2022/04/15 10:20:32;;;;;;;17.67;12.02;;;;;;;23.02;47.43;99301.94;4964640;28;20081;-91
2022/04/15 10:23:07;;;;;;;21.15;12.13;;;;;;;23.18;45.99;99311.69;4964927;28;20070;-92
2022/04/15 10:25:35;;;;;;;20.77;12.38;;;;;;;23.49;45.11;99293.75;4964531;28;20043;-92
2022/04/15 10:28:13;;;;;;;18.75;11.18;;;;;;;23.26;48.85;99305.91;4965088;28;20047;-92
2022/04/15 10:30:46;;;;;;;16.13;9.77;;;;;;;23.59;45.17;99298.47;4964690;28;20337;-92
2022/04/15 10:33:27;;;;;;;19.13;11.10;;;;;;;23.69;44.09;99296.94;4964620;29;20023;-92
2022/04/15 10:35:58;;;;;;;19.15;11.73;;;;;;;23.51;45.28;99298.09;4964592;29;20104;-92
2022/04/15 10:38:24;;;;;;;17.05;11.10;;;;;;;23.39;46.09;99288.09;4964624;28;20099;-92
2022/04/15 10:40:49;;;;;;;17.52;10.48;;;;;;;23.37;46.65;99286.44;4964819;28;20318;-92
2022/04/15 10:43:25;;;;;;;15.63;10.25;;;;;;;22.32;45.99;99282.78;4964946;28;20184;-92
2022/04/15 10:46:10;;;;;;;15.57;9.45;;;;;;;22.45;47.54;99287.38;4964569;28;20382;-91
2022/04/15 10:48:37;;;;;;;20.27;8.95;;;;;;;22.10;48.35;99285.81;4964404;28;20034;-92
2022/04/15 10:51:27;;;;;;;12.45;8.45;;;;;;;22.88;46.91;99285.78;4964471;29;20031;-92
2022/04/15 10:53:53;;;;;;;18.00;8.45;;;;;;;22.58;46.38;99284.88;4964519;29;20200;-92
2022/04/15 10:56:20;;;;;;;18.08;10.32;;;;;;;23.07;46.47;99287.28;4964713;29;20034;-92
2022/04/15 11:02:04;;;;;;;14.52;8.52;;;;;;;22.23;47.97;99291.34;4965439;29;20099;-92
2022/04/15 11:04:35;;;;;;;10.38;6.97;;;;;;;21.91;47.54;99292.25;4964691;29;20023;-91
2022/04/15 11:07:24;;;;;;;12.00;7.60;;;;;;;21.71;45.85;99290.63;4964673;29;20019;-91
2022/04/15 11:09:50;;;;;;;14.32;7.82;;;;;;;21.08;50.74;99270.75;4964699;29;20069;-91
2022/04/15 11:12:33;;;;;;;13.77;7.65;;;;;;;21.78;46.43;99288.50;4964539;29;20054;-92
2022/04/15 11:14:59;;;;;;;11.30;6.90;;;;;;;22.25;47.99;99289.44;4964655;29;20372;-92
2022/04/15 11:17:46;;;;;;;13.65;7.18;;;;;;;22.41;46.40;99274.22;4964114;29;20050;-91
2022/04/15 11:20:12;;;;;;;12.48;7.40;;;;;;;22.83;48.14;99275.31;4966551;28;20027;-92
2022/04/15 11:22:42;;;;;;;12.85;7.43;;;;;;;22.39;47.60;99276.09;4967642;29;20027;-92
2022/04/15 11:25:09;;;;;;;10.93;6.63;;;;;;;23.25;48.92;99274.59;4967455;29;20039;-92
2022/04/15 11:27:39;;;;;;;12.13;6.90;;;;;;;23.51;43.87;99281.97;4967594;29;20028;-91
2022/04/15 11:30:15;;;;;;;10.18;6.18;;;;;;;23.55;43.79;99267.38;4967580;29;20031;-92
2022/04/15 11:32:56;;;;;;;13.35;7.25;;;;;;;23.35;42.95;99281.19;4967519;29;20223;-91